Time;durP1;ratioP1;P1;durP2;ratioP2;P2;SDS_P1;SDS_P2;PMS_P1;PMS_P2;Temp;Humidity;BMP_temperature;BMP_pressure;BME280_temperature;BME280_humidity;BME280_pressure;Samples;Min_cycle;Max_cycle;Signal;HPM_P1;HPM_P2
2023/03/29 00:00:26;;;;;;;9.37;3.50;;;4.90;99.90;;;;;;6311469;22;20029;-90
2023/03/29 00:02:58;;;;;;;9.67;3.40;;;5.00;99.90;;;;;;6312497;22;20094;-89
2023/03/29 00:05:32;;;;;;;9.40;3.47;;;6.00;99.90;;;;;;6339819;22;20042;-90
2023/03/29 00:08:02;;;;;;;9.30;3.17;;;6.80;99.90;;;;;;6310874;22;20014;-90
2023/03/29 00:10:34;;;;;;;8.73;3.43;;;5.00;99.90;;;;;;6312352;22;20011;-89
2023/03/29 00:13:18;;;;;;;10.20;3.70;;;5.00;99.90;;;;;;6312389;22;20385;-89
2023/03/29 00:15:54;;;;;;;9.93;3.53;;;4.50;99.90;;;;;;6339172;22;20021;-89
2023/03/29 00:18:29;;;;;;;8.57;3.47;;;6.60;99.90;;;;;;6311758;22;20015;-89
2023/03/29 00:21:07;;;;;;;9.70;3.50;;;4.70;99.90;;;;;;6312242;22;20053;-90
2023/03/29 00:23:45;;;;;;;8.77;3.37;;;4.90;99.90;;;;;;6312159;22;20015;-89
2023/03/29 00:26:29;;;;;;;9.83;3.77;;;4.80;99.90;;;;;;6311635;22;20026;-89
2023/03/29 00:28:54;;;;;;;8.70;3.65;;;5.10;99.90;;;;;;6310586;22;20026;-89
2023/03/29 00:33:45;;;;;;;9.57;3.70;;;5.10;99.90;;;;;;6309600;22;20026;-89
2023/03/29 00:36:12;;;;;;;11.13;3.80;;;4.80;99.90;;;;;;6318706;22;20023;-89
2023/03/29 00:38:44;;;;;;;10.37;3.70;;;6.20;99.90;;;;;;6334845;22;20023;-88
2023/03/29 00:41:30;;;;;;;9.53;3.80;;;6.10;99.90;;;;;;6316254;22;20532;-89
2023/03/29 00:44:01;;;;;;;10.03;3.60;;;5.40;99.90;;;;;;6305361;22;20098;-89
2023/03/29 00:46:39;;;;;;;10.03;3.60;;;6.00;99.90;;;;;;6310907;22;20011;-89
2023/03/29 00:49:12;;;;;;;10.17;3.77;;;5.40;99.90;;;;;;6309445;22;20057;-89
2023/03/29 00:51:47;;;;;;;10.30;3.65;;;4.80;99.90;;;;;;6307156;22;20327;-89
2023/03/29 00:54:27;;;;;;;11.20;3.80;;;6.20;99.90;;;;;;6307787;22;20019;-88
2023/03/29 00:56:53;;;;;;;12.37;3.90;;;4.70;99.90;;;;;;6307937;22;20019;-88
2023/03/29 00:59:31;;;;;;;10.17;4.13;;;4.70;99.90;;;;;;6308271;22;20007;-89
2023/03/29 01:02:05;;;;;;;11.67;4.30;;;4.80;99.90;;;;;;6306407;22;20447;-89
2023/03/29 01:04:58;;;;;;;10.03;4.40;;;5.00;99.90;;;;;;6306196;22;20007;-89
2023/03/29 01:08:05;;;;;;;11.27;4.10;;;4.80;99.90;;;;;;6306458;22;20069;-88
2023/03/29 01:10:57;;;;;;;11.03;4.13;;;5.50;99.90;;;;;;6307476;22;20620;-89
2023/03/29 01:13:55;;;;;;;11.17;4.20;;;4.80;99.90;;;;;;6306486;22;20019;-90
2023/03/29 01:16:38;;;;;;;10.00;4.30;;;4.70;99.90;;;;;;6307876;22;20011;-89
2023/03/29 01:19:29;;;;;;;10.30;4.10;;;6.20;99.90;;;;;;6306694;22;20443;-89
2023/03/29 01:22:13;;;;;;;12.00;4.40;;;4.40;99.90;;;;;;6306336;22;20023;-88
2023/03/29 01:24:54;;;;;;;9.77;4.10;;;4.80;99.90;;;;;;6305497;22;20867;-88
2023/03/29 01:31:08;;;;;;;11.13;4.50;;;4.90;99.90;;;;;;6308426;22;20022;-88
2023/03/29 01:33:57;;;;;;;10.30;4.47;;;5.70;99.90;;;;;;6305751;22;20017;-89
2023/03/29 01:37:09;;;;;;;12.30;5.10;;;6.10;99.90;;;;;;6307284;22;20439;-89
2023/03/29 01:39:47;;;;;;;11.53;4.77;;;4.80;99.90;;;;;;6303719;22;20015;-89
2023/03/29 01:42:43;;;;;;;12.77;5.30;;;4.80;99.90;;;;;;6305918;22;20045;-89
2023/03/29 01:45:23;;;;;;;12.13;5.50;;;4.80;99.90;;;;;;6306028;22;20053;-89
2023/03/29 01:47:54;;;;;;;12.67;5.60;;;4.80;99.90;;;;;;6305279;22;20090;-90
2023/03/29 01:51:03;;;;;;;13.07;5.77;;;5.70;99.90;;;;;;6307867;22;20081;-89
2023/03/29 01:53:33;;;;;;;14.17;6.13;;;4.80;99.90;;;;;;6304544;22;20398;-89
2023/03/29 01:56:11;;;;;;;13.37;6.63;;;5.90;99.90;;;;;;6307623;22;20011;-90
2023/03/29 01:58:43;;;;;;;13.73;6.77;;;5.50;99.90;;;;;;6305969;22;20037;-90
2023/03/29 02:01:26;;;;;;;14.07;7.23;;;4.50;99.90;;;;;;6304605;22;20023;-89
2023/03/29 02:04:02;;;;;;;15.97;7.40;;;4.30;99.90;;;;;;6306273;22;20007;-89
2023/03/29 02:06:38;;;;;;;14.33;7.53;;;4.70;99.90;;;;;;6305136;22;20455;-90
2023/03/29 02:09:05;;;;;;;16.93;7.40;;;5.70;99.90;;;;;;6306892;22;20019;-89
2023/03/29 02:11:51;;;;;;;16.73;8.37;;;4.90;99.90;;;;;;6325841;22;20015;-89
2023/03/29 02:14:17;;;;;;;17.83;8.03;;;4.50;99.90;;;;;;6326320;22;20019;-90
2023/03/29 02:16:55;;;;;;;16.93;7.70;;;6.00;99.90;;;;;;6307456;22;20399;-90
2023/03/29 02:19:33;;;;;;;16.60;8.20;;;4.60;99.90;;;;;;6308587;22;20019;-89
2023/03/29 02:22:09;;;;;;;16.60;8.30;;;4.80;99.90;;;;;;6306590;22;20069;-88
2023/03/29 02:24:47;;;;;;;17.67;8.13;;;5.60;99.90;;;;;;6308128;22;20033;-89
2023/03/29 02:27:28;;;;;;;17.37;8.77;;;4.50;99.90;;;;;;6307744;22;20083;-90
2023/03/29 02:30:23;;;;;;;18.27;8.80;;;4.90;99.90;;;;;;6305492;22;20181;-90
2023/03/29 02:33:18;;;;;;;16.73;8.60;;;5.10;99.90;;;;;;6307688;22;20309;-90
2023/03/29 02:35:57;;;;;;;16.83;8.87;;;6.30;99.90;;;;;;6305186;22;20324;-90
2023/03/29 02:38:37;;;;;;;18.87;9.10;;;6.20;99.90;;;;;;6302234;22;20061;-90
2023/03/29 02:41:04;;;;;;;16.53;8.53;;;4.20;99.90;;;;;;6317974;22;20023;-90
2023/03/29 02:43:41;;;;;;;17.27;9.10;;;4.80;99.90;;;;;;6318687;22;20033;-90
2023/03/29 02:46:18;;;;;;;16.57;8.53;;;5.80;99.90;;;;;;6306401;22;20011;-89
2023/03/29 02:48:57;;;;;;;18.57;9.17;;;6.00;99.90;;;;;;6317915;22;20015;-89
2023/03/29 02:51:39;;;;;;;17.97;9.47;;;4.80;99.90;;;;;;6309879;22;20044;-90
2023/03/29 02:54:28;;;;;;;18.47;9.40;;;4.80;99.90;;;;;;6305322;22;20029;-90
2023/03/29 02:57:05;;;;;;;18.50;9.27;;;4.40;99.90;;;;;;6305272;22;20011;-90
2023/03/29 02:59:42;;;;;;;20.10;9.17;;;5.80;99.90;;;;;;6305862;22;20023;-90
2023/03/29 03:02:20;;;;;;;16.43;9.13;;;4.50;99.90;;;;;;6305177;22;20015;-90
2023/03/29 03:04:46;;;;;;;20.57;9.40;;;4.00;99.90;;;;;;6305057;22;20377;-90
2023/03/29 03:07:24;;;;;;;18.43;9.43;;;4.80;99.90;;;;;;6307145;22;20049;-89
2023/03/29 03:10:08;;;;;;;18.13;9.33;;;4.80;99.90;;;;;;6305685;22;20019;-89
2023/03/29 03:12:36;;;;;;;18.10;8.90;;;4.80;99.90;;;;;;6307763;22;20173;-90
2023/03/29 03:15:30;;;;;;;16.97;9.23;;;5.40;99.90;;;;;;6304602;22;20023;-90
2023/03/29 03:18:02;;;;;;;17.90;9.60;;;4.40;99.90;;;;;;6310302;22;20011;-91
2023/03/29 03:20:52;;;;;;;17.83;9.50;;;4.60;99.90;;;;;;6311122;22;20018;-90
2023/03/29 03:23:34;;;;;;;21.30;9.90;;;5.90;99.90;;;;;;6310076;22;20098;-89
2023/03/29 03:25:59;;;;;;;18.90;10.30;;;4.70;99.90;;;;;;6309240;22;20068;-90
2023/03/29 03:28:42;;;;;;;16.23;9.30;;;4.70;99.90;;;;;;6338601;22;20019;-90
2023/03/29 03:31:08;;;;;;;18.10;9.83;;;5.00;99.90;;;;;;6309266;22;20068;-89
2023/03/29 03:33:46;;;;;;;19.00;9.80;;;4.80;99.90;;;;;;6310566;22;20019;-90
2023/03/29 03:36:13;;;;;;;19.13;10.00;;;4.60;99.90;;;;;;6308545;22;20110;-89
2023/03/29 03:38:38;;;;;;;20.50;9.53;;;4.80;99.90;;;;;;6306139;22;20019;-89
2023/03/29 03:41:10;;;;;;;18.40;9.20;;;4.90;99.90;;;;;;6304602;22;20065;-90
2023/03/29 03:43:54;;;;;;;21.77;10.53;;;4.70;99.90;;;;;;6309597;22;20047;-89
2023/03/29 03:46:29;;;;;;;18.80;9.97;;;4.50;99.90;;;;;;6330417;22;20514;-89
2023/03/29 03:49:10;;;;;;;18.73;9.90;;;4.20;99.90;;;;;;6311795;22;20030;-90
2023/03/29 03:51:55;;;;;;;19.03;10.60;;;4.60;99.90;;;;;;6306900;22;20011;-89
2023/03/29 03:54:20;;;;;;;20.23;10.23;;;4.70;99.90;;;;;;6308838;22;20016;-89
2023/03/29 03:56:53;;;;;;;19.40;9.93;;;5.70;99.90;;;;;;6306445;22;20015;-89
2023/03/29 03:59:37;;;;;;;16.83;9.73;;;5.20;99.90;;;;;;6304479;22;20030;-89
2023/03/29 04:02:04;;;;;;;18.77;10.40;;;4.40;99.90;;;;;;6306030;22;20088;-89
2023/03/29 04:04:39;;;;;;;17.70;9.67;;;4.80;99.90;;;;;;6305659;22;20019;-89
2023/03/29 04:07:05;;;;;;;20.90;10.37;;;6.40;99.90;;;;;;6305380;22;20102;-90
2023/03/29 04:09:32;;;;;;;21.27;10.37;;;4.90;99.90;;;;;;6308826;22;20047;-89
2023/03/29 04:12:09;;;;;;;20.83;11.00;;;5.50;99.90;;;;;;6306723;22;20038;-90
2023/03/29 04:14:47;;;;;;;16.93;10.03;;;5.10;99.90;;;;;;6306092;22;20498;-89
2023/03/29 04:17:13;;;;;;;18.27;10.83;;;6.30;99.90;;;;;;6308618;22;20012;-89
2023/03/29 04:19:45;;;;;;;19.03;9.97;;;5.00;99.90;;;;;;6307462;22;20340;-88
2023/03/29 04:22:10;;;;;;;20.93;11.80;;;6.30;99.90;;;;;;6306111;22;20011;-89
2023/03/29 04:24:51;;;;;;;19.03;10.30;;;5.20;99.90;;;;;;6307320;22;20042;-89
2023/03/29 04:27:17;;;;;;;17.80;9.97;;;6.30;99.90;;;;;;6306482;22;20027;-89
2023/03/29 04:29:55;;;;;;;20.60;10.73;;;6.10;99.90;;;;;;6307209;22;20015;-89
2023/03/29 04:32:39;;;;;;;19.47;10.87;;;6.40;99.90;;;;;;6308495;22;20012;-89
2023/03/29 04:35:15;;;;;;;;;;;;;;;;;;;;;
2023/03/29 04:38:12;;;;;;;18.73;10.23;;;5.00;99.90;;;;;;6307141;22;20062;-90
2023/03/29 04:40:50;;;;;;;17.13;9.80;;;4.40;99.90;;;;;;6308285;22;20023;-90
2023/03/29 04:43:16;;;;;;;20.73;10.37;;;4.00;99.90;;;;;;6305624;22;20100;-90
2023/03/29 04:45:42;;;;;;;19.73;10.73;;;5.70;99.90;;;;;;6308531;22;20392;-90
2023/03/29 04:48:07;;;;;;;19.50;10.30;;;4.70;99.90;;;;;;6308240;22;20015;-89
2023/03/29 04:50:59;;;;;;;21.57;10.03;;;5.40;99.90;;;;;;6305287;22;20463;-90
2023/03/29 04:53:37;;;;;;;19.13;10.10;;;4.20;99.90;;;;;;6307893;22;20086;-89
2023/03/29 04:56:02;;;;;;;19.47;10.67;;;5.90;99.90;;;;;;6307871;22;20060;-90
2023/03/29 04:58:37;;;;;;;18.40;9.63;;;5.20;99.90;;;;;;6310780;22;20429;-90
2023/03/29 05:01:25;;;;;;;18.70;10.33;;;6.80;99.90;;;;;;6308123;22;20049;-90
2023/03/29 05:04:03;;;;;;;19.47;9.53;;;5.00;99.90;;;;;;6308060;22;20470;-90
2023/03/29 05:06:44;;;;;;;18.57;9.43;;;5.30;99.90;;;;;;6312689;22;20466;-89
2023/03/29 05:09:25;;;;;;;17.77;9.50;;;6.30;99.90;;;;;;6306311;22;20019;-90
2023/03/29 05:11:57;;;;;;;18.37;8.83;;;5.00;99.90;;;;;;6306683;22;20382;-89
2023/03/29 05:14:38;;;;;;;20.70;9.70;;;6.30;99.90;;;;;;6308361;22;20076;-90
2023/03/29 05:17:05;;;;;;;17.93;9.43;;;5.30;99.90;;;;;;6315400;22;20019;-90
2023/03/29 05:19:43;;;;;;;16.87;9.23;;;6.50;99.90;;;;;;6335375;22;20075;-90
2023/03/29 05:22:22;;;;;;;18.50;9.67;;;4.80;99.90;;;;;;6313795;22;20007;-90
2023/03/29 05:24:48;;;;;;;22.53;10.37;;;5.50;99.90;;;;;;6308215;22;20020;-91
2023/03/29 05:27:13;;;;;;;21.50;10.37;;;4.90;99.90;;;;;;6312076;22;20022;-90
2023/03/29 05:29:54;;;;;;;22.40;11.00;;;6.40;99.90;;;;;;6309932;22;20023;-89
2023/03/29 05:32:19;;;;;;;21.73;10.40;;;4.90;99.90;;;;;;6305336;22;20034;-90
2023/03/29 05:35:00;;;;;;;20.67;10.57;;;6.00;99.90;;;;;;6308561;22;20443;-90
2023/03/29 05:37:27;;;;;;;19.53;10.67;;;4.80;99.90;;;;;;6306899;22;20019;-89
2023/03/29 05:40:08;;;;;;;21.70;11.03;;;6.10;99.90;;;;;;6305169;22;20016;-89
2023/03/29 05:42:40;;;;;;;21.37;10.97;;;5.30;99.90;;;;;;6307955;22;20053;-89
2023/03/29 05:45:12;;;;;;;21.73;11.30;;;6.40;99.90;;;;;;6305294;22;20494;-89
2023/03/29 05:47:38;;;;;;;24.83;11.50;;;5.00;99.90;;;;;;6306002;22;20019;-89
2023/03/29 05:50:25;;;;;;;22.30;11.80;;;6.50;99.90;;;;;;6305525;22;20086;-89
2023/03/29 05:52:51;;;;;;;21.60;11.47;;;5.20;99.90;;;;;;6313267;22;20015;-89
2023/03/29 05:55:35;;;;;;;22.13;11.77;;;4.90;99.90;;;;;;6320761;22;20093;-89
2023/03/29 05:58:01;;;;;;;29.25;12.30;;;5.70;99.90;;;;;;6308750;22;20019;-89
2023/03/29 06:00:51;;;;;;;22.87;12.20;;;6.40;99.90;;;;;;6305463;22;20007;-89
2023/03/29 06:03:32;;;;;;;23.60;12.73;;;4.40;99.90;;;;;;6306912;22;20124;-90
2023/03/29 06:06:08;;;;;;;24.73;13.00;;;4.60;99.90;;;;;;6303741;22;20015;-91
2023/03/29 06:08:52;;;;;;;24.93;12.83;;;5.00;99.90;;;;;;6307862;22;20026;-87
2023/03/29 06:11:17;;;;;;;22.73;12.38;;;4.20;99.90;;;;;;6305557;22;20011;-87
2023/03/29 06:13:52;;;;;;;22.57;11.93;;;6.50;99.90;;;;;;6306815;22;20015;-86
2023/03/29 06:16:18;;;;;;;22.40;12.47;;;4.80;99.90;;;;;;6305383;22;20078;-86
2023/03/29 06:18:46;;;;;;;23.47;12.73;;;4.80;99.90;;;;;;6305801;22;20042;-87
2023/03/29 06:21:12;;;;;;;25.00;13.23;;;6.40;99.90;;;;;;6306360;22;20482;-85
2023/03/29 06:27:37;;;;;;;24.87;13.07;;;5.10;99.90;;;;;;6306171;22;20042;-84
2023/03/29 06:30:05;;;;;;;24.23;12.53;;;6.00;99.90;;;;;;6305406;22;20094;-85
2023/03/29 06:32:33;;;;;;;24.87;13.23;;;5.20;99.90;;;;;;6307360;22;20049;-85
2023/03/29 06:34:59;;;;;;;21.97;12.83;;;6.10;99.90;;;;;;6304982;22;20022;-87
2023/03/29 06:37:28;;;;;;;25.87;12.30;;;5.70;99.90;;;;;;6307659;22;20015;-86
2023/03/29 06:39:53;;;;;;;23.57;11.70;;;5.30;99.90;;;;;;6305484;22;20023;-84
2023/03/29 06:42:20;;;;;;;22.00;12.23;;;5.90;99.90;;;;;;6304309;22;20017;-83
2023/03/29 06:44:46;;;;;;;21.90;12.20;;;5.60;99.90;;;;;;6305574;22;20395;-84
2023/03/29 06:47:16;;;;;;;22.53;12.90;;;5.30;99.90;;;;;;6305261;22;20007;-84
2023/03/29 06:49:42;;;;;;;22.90;11.67;;;5.30;99.90;;;;;;6306805;22;20018;-83
2023/03/29 06:52:09;;;;;;;25.87;12.77;;;5.40;99.90;;;;;;6314320;22;20008;-84
2023/03/29 06:54:34;;;;;;;24.53;11.87;;;5.40;99.90;;;;;;6320352;22;20466;-83
2023/03/29 06:57:01;;;;;;;25.87;11.90;;;5.40;99.90;;;;;;6305048;22;20474;-84
2023/03/29 06:59:27;;;;;;;23.60;12.13;;;5.90;99.90;;;;;;6310356;22;20030;-83
2023/03/29 07:01:53;;;;;;;20.67;11.10;;;5.50;99.90;;;;;;6308160;22;20019;-83
2023/03/29 07:04:22;;;;;;;24.60;11.80;;;5.50;99.90;;;;;;6273620;22;20015;-83
2023/03/29 07:06:57;;;;;;;20.37;11.50;;;5.60;99.90;;;;;;6276917;22;20012;-84
2023/03/29 07:09:25;;;;;;;23.00;11.40;;;5.70;99.90;;;;;;6273645;22;20045;-84
2023/03/29 07:11:50;;;;;;;21.20;10.73;;;5.70;99.90;;;;;;6276535;22;20050;-84
2023/03/29 07:14:16;;;;;;;20.77;11.40;;;5.80;99.90;;;;;;6274726;22;20019;-83
2023/03/29 07:16:55;;;;;;;20.13;10.77;;;6.90;99.90;;;;;;6273777;22;20340;-85
2023/03/29 07:19:32;;;;;;;19.87;10.27;;;5.80;99.90;;;;;;6227855;22;20507;-84
2023/03/29 07:21:57;;;;;;;21.97;10.47;;;7.10;99.90;;;;;;6276339;22;20035;-84
2023/03/29 07:24:42;;;;;;;22.63;11.30;;;7.40;99.90;;;;;;6274790;22;20444;-89
2023/03/29 07:27:08;;;;;;;21.23;10.23;;;5.80;99.90;;;;;;6275684;22;20070;-85
2023/03/29 07:29:47;;;;;;;17.73;10.03;;;7.60;99.90;;;;;;6274425;22;20043;-85
2023/03/29 07:32:16;;;;;;;19.60;10.60;;;6.00;99.90;;;;;;6272734;22;20019;-86
2023/03/29 07:34:54;;;;;;;18.73;9.90;;;7.60;99.90;;;;;;6274340;22;20015;-86
2023/03/29 07:37:20;;;;;;;18.37;9.73;;;5.90;99.90;;;;;;6271498;22;20351;-87
2023/03/29 07:40:11;;;;;;;20.43;8.67;;;6.00;99.90;;;;;;6277946;22;20083;-86
2023/03/29 07:43:30;;;;;;;16.47;8.80;;;6.20;99.90;;;;;;6276326;22;20012;-86
2023/03/29 07:46:00;;;;;;;17.37;8.67;;;5.60;99.90;;;;;;6275192;22;20102;-86
2023/03/29 07:48:25;;;;;;;18.42;8.75;;;6.00;99.90;;;;;;6278234;22;20009;-86
2023/03/29 07:50:51;;;;;;;17.33;9.43;;;6.20;99.90;;;;;;6276893;22;20027;-86
2023/03/29 07:53:19;;;;;;;17.80;8.88;;;6.30;99.90;;;;;;6274980;22;20011;-85
2023/03/29 07:55:47;;;;;;;18.10;8.27;;;6.70;99.90;;;;;;6278170;22;20321;-86
2023/03/29 07:58:13;;;;;;;16.20;9.17;;;6.40;99.90;;;;;;6276425;22;20402;-86
2023/03/29 08:00:40;;;;;;;16.47;8.63;;;7.40;99.90;;;;;;6276130;22;20022;-85
2023/03/29 08:03:08;;;;;;;15.63;8.20;;;6.40;99.90;;;;;;6275500;22;20474;-86
2023/03/29 08:05:35;;;;;;;18.10;8.60;;;6.40;99.90;;;;;;6276501;22;20503;-86
2023/03/29 08:08:04;;;;;;;14.50;7.57;;;7.70;99.90;;;;;;6277453;22;20047;-86
2023/03/29 08:10:29;;;;;;;17.47;8.27;;;6.50;99.90;;;;;;6276306;22;20023;-85
2023/03/29 08:13:06;;;;;;;15.30;7.65;;;7.90;99.90;;;;;;6275414;22;20019;-86
2023/03/29 08:15:33;;;;;;;15.30;7.77;;;7.50;99.90;;;;;;6277886;22;20073;-86
2023/03/29 08:17:59;;;;;;;15.37;7.90;;;6.60;99.90;;;;;;6277305;22;20151;-86
2023/03/29 08:20:25;;;;;;;18.52;9.25;;;6.60;99.90;;;;;;6275477;22;20047;-86
2023/03/29 08:22:50;;;;;;;15.63;7.50;;;6.70;99.90;;;;;;6276373;22;20019;-86
2023/03/29 08:25:16;;;;;;;15.27;7.83;;;6.80;99.90;;;;;;6276512;22;20016;-86
2023/03/29 08:27:42;;;;;;;16.37;7.57;;;6.80;99.90;;;;;;6294323;22;20019;-86
2023/03/29 08:30:08;;;;;;;13.33;7.23;;;8.20;99.90;;;;;;6280023;22;20043;-86
2023/03/29 08:32:35;;;;;;;14.27;7.35;;;6.90;99.90;;;;;;6278950;22;20016;-86
2023/03/29 08:35:06;;;;;;;14.68;6.90;;;6.90;99.90;;;;;;6282997;22;20065;-86
2023/03/29 08:37:32;;;;;;;15.67;7.60;;;6.90;99.90;;;;;;6276705;22;20039;-86
2023/03/29 08:39:57;;;;;;;15.75;7.80;;;7.00;99.90;;;;;;6275767;22;20026;-86
2023/03/29 08:42:45;;;;;;;13.55;7.10;;;7.10;99.90;;;;;;6274911;22;20011;-86
2023/03/29 08:45:28;;;;;;;14.60;7.05;;;7.10;99.90;;;;;;6275312;22;20016;-86
2023/03/29 08:48:02;;;;;;;13.98;6.55;;;7.10;99.90;;;;;;6276737;22;20012;-86
2023/03/29 08:50:44;;;;;;;15.32;8.77;;;7.30;99.90;;;;;;6277489;22;20020;-86
2023/03/29 08:53:40;;;;;;;16.05;7.50;;;7.40;99.90;;;;;;6275515;22;20016;-86
2023/03/29 08:56:19;;;;;;;15.88;7.43;;;8.30;99.90;;;;;;6231336;22;20506;-86
2023/03/29 08:58:46;;;;;;;14.93;6.80;;;7.80;99.90;;;;;;6277081;22;20023;-86
2023/03/29 09:01:12;;;;;;;13.82;7.45;;;7.60;99.90;;;;;;6275588;22;20340;-86
2023/03/29 09:03:59;;;;;;;13.38;7.32;;;7.70;99.90;;;;;;6274878;22;20046;-86
2023/03/29 09:06:24;;;;;;;15.02;7.10;;;8.40;99.90;;;;;;6276091;22;20051;-86
2023/03/29 09:08:52;;;;;;;14.65;6.90;;;8.00;99.90;;;;;;6275116;22;20019;-85
2023/03/29 09:11:50;;;;;;;13.25;6.80;;;9.20;99.90;;;;;;6286034;22;20054;-86
2023/03/29 09:14:25;;;;;;;14.00;6.75;;;8.40;99.90;;;;;;6280745;22;20361;-87
2023/03/29 09:17:04;;;;;;;13.85;6.72;;;8.50;99.90;;;;;;6274751;22;20015;-86
2023/03/29 09:19:54;;;;;;;16.10;7.00;;;8.60;99.90;;;;;;6276676;22;20475;-87
2023/03/29 09:22:57;;;;;;;13.50;6.30;;;8.80;99.90;;;;;;6276826;22;20012;-87
2023/03/29 09:25:35;;;;;;;13.85;6.35;;;8.90;99.90;;;;;;6274897;22;20023;-87
2023/03/29 09:28:13;;;;;;;13.60;6.45;;;9.10;99.90;;;;;;6274887;22;20015;-88
2023/03/29 09:30:40;;;;;;;12.82;6.32;;;9.10;99.90;;;;;;6276404;22;20015;-87
2023/03/29 09:33:38;;;;;;;12.63;6.22;;;9.10;99.90;;;;;;6276612;22;20023;-87
2023/03/29 09:36:30;;;;;;;14.85;6.38;;;9.20;99.90;;;;;;6275014;22;20020;-88
2023/03/29 09:38:56;;;;;;;14.15;6.68;;;9.40;99.90;;;;;;6274304;22;20068;-87
2023/03/29 09:41:32;;;;;;;12.85;6.38;;;9.70;99.90;;;;;;6274994;22;20054;-87
2023/03/29 09:44:04;;;;;;;12.18;5.90;;;10.80;99.90;;;;;;6275566;22;20016;-87
2023/03/29 09:46:56;;;;;;;12.75;5.78;;;9.70;99.90;;;;;;6275728;22;20347;-86
2023/03/29 09:49:39;;;;;;;16.63;6.43;;;11.00;99.90;;;;;;6275798;22;20016;-88
2023/03/29 09:52:11;;;;;;;13.07;6.50;;;10.70;99.90;;;;;;6273983;22;20095;-89
2023/03/29 09:54:51;;;;;;;14.85;6.50;;;11.10;99.90;;;;;;6275136;22;20475;-88
2023/03/29 09:57:42;;;;;;;16.10;6.68;;;10.20;99.90;;;;;;6272589;22;20023;-88
2023/03/29 10:00:10;;;;;;;11.75;5.88;;;9.60;99.90;;;;;;6294374;22;20007;-87
2023/03/29 10:03:01;;;;;;;12.60;6.30;;;9.60;99.90;;;;;;6280154;22;20016;-87
2023/03/29 10:06:00;;;;;;;12.40;6.60;;;9.50;99.90;;;;;;6274590;22;20095;-87
2023/03/29 10:11:35;;;;;;;14.82;6.95;;;9.60;99.90;;;;;;6275030;22;20051;-87
2023/03/29 10:14:12;;;;;;;13.82;7.03;;;10.80;99.90;;;;;;6273444;22;20019;-87
2023/03/29 10:16:46;;;;;;;15.95;7.00;;;10.10;99.90;;;;;;6276301;22;20516;-86
2023/03/29 10:19:20;;;;;;;14.90;7.30;;;9.20;99.90;;;;;;6275242;22;20037;-86
2023/03/29 10:21:47;;;;;;;;;;;9.60;99.90;;;;;;6277112;22;20020;-84
2023/03/29 10:24:21;;;;;;;14.63;7.28;;;10.20;99.90;;;;;;6274329;22;19922;-85
2023/03/29 10:26:54;;;;;;;14.20;7.25;;;10.70;99.90;;;;;;6274069;22;20016;-85
2023/03/29 10:29:20;;;;;;;14.23;7.30;;;10.10;99.90;;;;;;6276472;22;20023;-85
2023/03/29 10:31:46;;;;;;;14.07;7.45;;;10.30;99.90;;;;;;6276444;22;20062;-85
2023/03/29 10:34:15;;;;;;;15.07;8.35;;;10.10;99.90;;;;;;6273587;22;20007;-85
2023/03/29 10:37:02;;;;;;;14.88;7.80;;;11.10;99.90;;;;;;6276876;22;20084;-86
2023/03/29 10:39:32;;;;;;;21.70;13.75;;;10.00;99.90;;;;;;6276597;22;20015;-86
2023/03/29 10:41:58;;;;;;;16.85;8.13;;;10.80;99.90;;;;;;6275139;22;20095;-87
2023/03/29 10:44:37;;;;;;;15.35;8.25;;;10.20;99.90;;;;;;6274765;22;20098;-86
2023/03/29 10:47:24;;;;;;;14.45;7.85;;;11.40;99.90;;;;;;6274682;22;20019;-86
2023/03/29 10:50:00;;;;;;;14.82;8.13;;;10.40;99.90;;;;;;6275772;22;20448;-85
2023/03/29 10:52:28;;;;;;;14.18;7.93;;;11.30;99.90;;;;;;6274259;22;20317;-85
2023/03/29 10:55:04;;;;;;;16.30;8.52;;;11.00;99.90;;;;;;6274780;22;20099;-85
2023/03/29 11:01:33;;;;;;;19.23;10.30;;;10.30;99.90;;;;;;6224642;22;20039;-86
2023/03/29 11:04:17;;;;;;;15.40;8.07;;;12.00;99.90;;;;;;6245033;22;20016;-85
2023/03/29 11:06:49;;;;;;;16.17;8.02;;;10.80;99.90;;;;;;6243648;22;20314;-85
2023/03/29 11:09:59;;;;;;;13.50;7.07;;;11.70;99.90;;;;;;6247735;22;20020;-87
2023/03/29 11:12:48;;;;;;;15.93;7.68;;;10.90;99.90;;;;;;6274262;22;20019;-86
2023/03/29 11:15:40;;;;;;;13.68;8.02;;;11.00;99.90;;;;;;6249002;22;20015;-86
2023/03/29 11:18:13;;;;;;;13.43;7.93;;;11.20;99.90;;;;;;6275837;22;20094;-86
2023/03/29 11:21:07;;;;;;;13.30;7.30;;;11.30;99.90;;;;;;6251318;22;20019;-86
2023/03/29 11:24:06;;;;;;;14.40;8.68;;;11.40;99.90;;;;;;6249783;22;20447;-86
2023/03/29 11:26:56;;;;;;;13.90;7.43;;;11.60;99.90;;;;;;6278209;22;20071;-86
2023/03/29 11:29:30;;;;;;;13.40;7.07;;;11.80;99.90;;;;;;6253422;22;20020;-86
2023/03/29 11:31:58;;;;;;;;;;;12.00;99.90;;;;;;6294389;22;20448;-85
2023/03/29 11:34:35;;;;;;;16.60;9.48;;;12.00;99.90;;;;;;6280691;22;19961;-84
2023/03/29 11:37:34;;;;;;;13.38;7.35;;;12.10;99.90;;;;;;6252961;22;20090;-84
2023/03/29 11:40:25;;;;;;;17.48;10.60;;;12.00;99.90;;;;;;6250688;22;20023;-85
2023/03/29 11:42:54;;;;;;;14.82;7.85;;;12.00;99.90;;;;;;6278138;22;20011;-85
2023/03/29 11:45:31;;;;;;;15.75;7.57;;;12.20;99.90;;;;;;6249503;22;20020;-84
2023/03/29 11:48:06;;;;;;;14.68;7.57;;;13.20;99.90;;;;;;6250855;22;20336;-88
2023/03/29 11:51:18;;;;;;;17.20;9.05;;;12.20;99.90;;;;;;6277378;22;20016;-87
2023/03/29 11:54:15;;;;;;;12.35;6.82;;;12.00;99.90;;;;;;6196504;22;20021;-87
2023/03/29 11:56:51;;;;;;;12.80;7.10;;;12.50;99.90;;;;;;6251385;22;20023;-87
2023/03/29 11:59:31;;;;;;;13.52;7.00;;;13.00;99.90;;;;;;6277016;22;20090;-86
2023/03/29 12:02:05;;;;;;;13.13;6.45;;;12.30;99.90;;;;;;6250967;22;20015;-89
2023/03/29 12:04:39;;;;;;;14.18;6.95;;;12.30;99.90;;;;;;6250133;22;20050;-88
2023/03/29 12:07:17;;;;;;;14.38;6.95;;;13.10;99.90;;;;;;6276377;22;20066;-88
2023/03/29 12:10:33;;;;;;;11.75;6.40;;;13.80;99.90;;;;;;6269790;22;20963;-89
2023/03/29 12:13:45;;;;;;;13.55;6.13;;;12.60;99.90;;;;;;6308000;22;20042;-88
2023/03/29 12:16:39;;;;;;;13.40;6.35;;;12.80;99.90;;;;;;6280646;22;20015;-88
2023/03/29 12:21:36;;;;;;;12.15;7.00;;;12.90;99.90;;;;;;6278427;22;20024;-88
2023/03/29 12:24:17;;;;;;;14.02;7.07;;;14.10;99.90;;;;;;6275905;22;20016;-89
2023/03/29 12:27:26;;;;;;;12.73;6.68;;;13.00;99.90;;;;;;6277025;22;20011;-90
2023/03/29 12:30:35;;;;;;;13.35;6.45;;;12.60;99.90;;;;;;6281806;22;20081;-89
2023/03/29 12:33:26;;;;;;;13.00;6.50;;;13.20;99.90;;;;;;6301106;22;20016;-90
2023/03/29 12:36:10;;;;;;;13.20;6.90;;;12.30;99.90;;;;;;6280261;22;20027;-89
2023/03/29 12:38:57;;;;;;;14.00;6.10;;;13.20;99.90;;;;;;6278605;22;20069;-90
2023/03/29 12:41:43;;;;;;;12.90;6.80;;;13.30;99.90;;;;;;6278322;22;20027;-90
2023/03/29 12:44:31;;;;;;;12.00;6.43;;;14.50;99.90;;;;;;6277033;22;20012;-90
2023/03/29 12:47:02;;;;;;;12.77;6.70;;;14.60;99.90;;;;;;6275213;22;20016;-92
2023/03/29 12:49:55;;;;;;;15.05;6.60;;;13.80;99.90;;;;;;6278350;22;20472;-89
2023/03/29 12:52:38;;;;;;;13.52;6.60;;;13.20;99.90;;;;;;6278202;22;20019;-89
2023/03/29 12:55:44;;;;;;;13.55;6.60;;;13.00;99.90;;;;;;6274850;22;20019;-88
2023/03/29 12:58:57;;;;;;;14.05;7.20;;;13.10;99.90;;;;;;6239776;22;20015;-89
2023/03/29 13:02:10;;;;;;;13.00;6.97;;;12.60;99.90;;;;;;6165102;23;20035;-88
2023/03/29 13:05:04;;;;;;;13.73;6.72;;;13.10;99.90;;;;;;6295786;22;20016;-90
2023/03/29 13:07:46;;;;;;;12.98;7.22;;;13.80;99.90;;;;;;6226170;22;20058;-90
2023/03/29 13:10:36;;;;;;;15.15;7.35;;;14.30;99.90;;;;;;6276865;22;20016;-90
2023/03/29 13:13:35;;;;;;;13.88;7.72;;;13.30;99.90;;;;;;6275326;22;20392;-92
2023/03/29 13:23:50;;;;;;;12.95;6.97;;;13.60;99.90;;;;;;6276844;22;20020;-89
2023/03/29 13:29:46;;;;;;;16.05;7.20;;;13.40;99.90;;;;;;6278835;22;20015;-89
2023/03/29 13:32:35;;;;;;;11.77;6.93;;;13.30;99.90;;;;;;6275972;22;20020;-90
2023/03/29 13:35:27;;;;;;;19.70;10.73;;;13.50;99.90;;;;;;6277542;22;20027;-89
2023/03/29 13:38:36;;;;;;;13.95;8.25;;;13.20;99.90;;;;;;6275020;22;20448;-90
2023/03/29 13:41:31;;;;;;;14.80;8.00;;;12.90;99.90;;;;;;6275393;22;20065;-90
2023/03/29 13:44:43;;;;;;;13.32;8.18;;;13.10;99.90;;;;;;6276981;22;20106;-87
2023/03/29 13:47:40;;;;;;;13.85;8.88;;;14.40;99.90;;;;;;6182171;23;20017;-88
2023/03/29 13:50:19;;;;;;;14.65;9.70;;;13.40;99.90;;;;;;6157194;23;20453;-88
2023/03/29 13:53:29;;;;;;;18.77;9.07;;;13.70;99.90;;;;;;6158202;23;20026;-91
2023/03/29 13:56:18;;;;;;;14.02;8.27;;;13.00;99.90;;;;;;6183676;23;20123;-89
2023/03/29 13:59:17;;;;;;;15.45;8.30;;;13.00;99.90;;;;;;6182386;23;20450;-85
2023/03/29 14:01:59;;;;;;;15.48;8.48;;;13.00;99.90;;;;;;6183115;23;20027;-85
2023/03/29 14:04:36;;;;;;;16.58;9.50;;;13.00;99.90;;;;;;6214855;22;20019;-84
2023/03/29 14:07:05;;;;;;;14.57;9.10;;;13.10;99.90;;;;;;6275013;22;20023;-86
2023/03/29 14:09:34;;;;;;;15.93;10.02;;;13.80;99.90;;;;;;6277230;22;20055;-85